Mobridge Municipal Airport
KMBG : now visible

Airfield :











YOU CAN JOIN US ON...

 
LOGIN :

Register | Disclaimer

   EN    FR    IT 

 









Legend :    VFR   Marginal VFR   IFR   Intensive IFR   Very Intensive IFR
Visi :
Ceiling :
>= 8 km
>= 3000ft
5 to 8 km
1000 to 3000 ft
1500m to 5 km
500 to 1000 ft
800 to 1500m
200 to 500 ft
< 800m
< 200 ft
Symbols :   Thunderstorms  Fog  Heavy snow  Heavy precipitations  Wind > 20 kt






- Airport Elevation : 1716 ft


KMBG - Mobridge Municipal

CURRENT METAR :
  • 200752Z AUTO 09004KT 10SM CLR 02/M03 A2964 RMK AO2 SLP043 T00171028

EXPIRED METARs :
  • 200652Z AUTO 00000KT 10SM CLR 03/M02 A2963 RMK AO2 SLP037 T00331022
  • 200552Z AUTO 10005KT 10SM CLR 05/00 A2964 RMK AO2 SLP040 T00500000 10106 20006 401720000 58005

TAF KMBG
Valid from the 20 at 06:00 until the 21 at 06:00 UTC


200529Z 2006/2106 11005KT P6SM BKN200
FM201200 10010KT P6SM -RA OVC100
FM201600 10017G24KT 5SM -RA BR OVC040
FM202100 04017G25KT 2SM RA BR OVC010



MET'MAP, your aeronautical weather chart ! - Copyright ORBIFLY December 2007 - Disclaimer

ORBIFLY MET'MAP TEAM :

Programming & Development : Alexandra Zaïnal
Concept & Development : Baudouin d'Aumeries
Co-Development & Prog : Marc-Olivier Méhu
Technical & hardware support : Manuel Goepfert

Contact : metmap@orbifly.com




SOURCES & CREDITS :

   NOAA       Earth
Advisory